Time;durP1;ratioP1;P1;durP2;ratioP2;P2;SDS_P1;SDS_P2;PMS_P1;PMS_P2;Temp;Humidity;BMP_temperature;BMP_pressure;BME280_temperature;BME280_humidity;BME280_pressure;Samples;Min_cycle;Max_cycle;Signal;HPM_P1;HPM_P2
2022/10/14 00:02:04;;;;;;;;;;;;;;;8.80;100.00;98349.69;7388823;19;19914;-46
2022/10/14 00:04:37;;;;;;;;;;;;;;;8.66;100.00;98349.56;7384757;19;19949;-46
2022/10/14 00:07:12;;;;;;;;;;;;;;;9.07;100.00;98340.38;7387845;19;19923;-50
2022/10/14 00:09:41;;;;;;;;;;;;;;;9.13;100.00;98340.03;7387822;19;19943;-47
2022/10/14 00:12:12;;;;;;;;;;;;;;;9.19;100.00;98331.84;7386343;19;19915;-49
2022/10/14 00:14:41;;;;;;;;;;;;;;;9.15;100.00;98327.69;7387650;19;19918;-56
2022/10/14 00:17:11;;;;;;;;;;;;;;;9.26;100.00;98333.22;7389312;19;20324;-51
2022/10/14 00:19:43;;;;;;;;;;;;;;;9.03;100.00;98329.19;7380825;19;21096;-48
2022/10/14 00:22:15;;;;;;;;;;;;;;;9.09;100.00;98331.50;7386398;19;19919;-49
2022/10/14 00:24:45;;;;;;;;;;;;;;;9.04;100.00;98328.25;7387850;19;19941;-58
2022/10/14 00:27:14;;;;;;;;;;;;;;;8.92;100.00;98325.44;7387265;19;20383;-49
2022/10/14 00:29:43;;;;;;;;;;;;;;;9.24;100.00;98319.31;7385820;19;19974;-48
2022/10/14 00:32:13;;;;;;;;;;;;;;;9.14;100.00;98318.13;7389270;19;19978;-50
2022/10/14 00:34:42;;;;;;;;;;;;;;;9.27;100.00;98309.50;7384405;19;19990;-47
2022/10/14 00:37:11;;;;;;;;;;;;;;;9.30;100.00;98316.34;7387806;19;19911;-46
2022/10/14 00:39:44;;;;;;;;;;;;;;;9.31;100.00;98311.06;7386826;19;19919;-51
2022/10/14 00:42:15;;;;;;;;;;;;;;;9.20;100.00;98313.38;7386462;19;19930;-52
2022/10/14 00:44:59;;;;;;;;;;;;;;;9.05;100.00;98318.59;7388634;19;19914;-46
2022/10/14 00:47:29;;;;;;;;;;;;;;;9.18;100.00;98314.41;7382345;19;19923;-46
2022/10/14 00:49:59;;;;;;;;;;;;;;;8.99;100.00;98316.28;7389434;19;19914;-47
2022/10/14 00:52:31;;;;;;;;;;;;;;;9.24;100.00;98311.44;7389877;19;20228;-46
2022/10/14 00:55:05;;;;;;;;;;;;;;;9.07;100.00;98301.00;7385476;19;20447;-48
2022/10/14 00:57:35;;;;;;;;;;;;;;;9.21;100.00;98301.94;7389772;19;19925;-50
2022/10/14 01:00:07;;;;;;;;;;;;;;;9.04;100.00;98303.78;7387297;19;19915;-60
2022/10/14 01:02:36;;;;;;;;;;;;;;;9.02;100.00;98303.00;7390621;19;20401;-46
2022/10/14 01:05:07;;;;;;;;;;;;;;;9.20;100.00;98307.28;7388564;19;19918;-47
2022/10/14 01:07:42;;;;;;;;;;;;;;;9.18;100.00;98306.53;7383872;19;19915;-51
2022/10/14 01:10:17;;;;;;;;;;;;;;;8.96;100.00;98306.00;7387561;19;19930;-47
2022/10/14 01:12:54;;;;;;;;;;;;;;;9.14;100.00;98302.38;7387917;19;20227;-46
2022/10/14 01:15:29;;;;;;;;;;;;;;;9.18;100.00;98298.66;7390023;19;19923;-46
2022/10/14 01:18:04;;;;;;;;;;;;;;;8.89;100.00;98296.75;7386125;19;19914;-47
2022/10/14 01:20:48;;;;;;;;;;;;;;;8.69;100.00;98304.81;7383772;19;19911;-47
2022/10/14 01:23:28;;;;;;;;;;;;;;;8.68;100.00;98296.09;7386872;19;19915;-51
2022/10/14 01:26:04;;;;;;;;;;;;;;;8.99;100.00;98292.69;7380963;19;19915;-47
2022/10/14 01:28:41;;;;;;;;;;;;;;;9.03;100.00;98289.00;7384981;19;19926;-46
2022/10/14 01:31:17;;;;;;;;;;;;;;;8.92;100.00;98289.53;7378415;19;19913;-48
2022/10/14 01:33:47;;;;;;;;;;;;;;;9.05;100.00;98284.47;7387255;19;19924;-47
2022/10/14 01:36:20;;;;;;;;;;;;;;;8.99;100.00;98288.28;7388487;19;19919;-46
2022/10/14 01:38:53;;;;;;;;;;;;;;;8.92;100.00;98288.72;7383696;19;19979;-46
2022/10/14 01:41:25;;;;;;;;;;;;;;;9.10;100.00;98279.81;7393285;19;19919;-47
2022/10/14 01:43:57;;;;;;;;;;;;;;;9.08;100.00;98284.31;7390706;19;19939;-58
2022/10/14 01:46:34;;;;;;;;;;;;;;;9.21;100.00;98278.31;7394506;19;20554;-48
2022/10/14 01:49:06;;;;;;;;;;;;;;;8.90;100.00;98283.53;7394653;19;20029;-46
2022/10/14 01:51:38;;;;;;;;;;;;;;;8.97;100.00;98278.81;7385800;19;19938;-46
2022/10/14 01:54:12;;;;;;;;;;;;;;;8.92;100.00;98276.41;7395550;19;20224;-48
2022/10/14 01:56:43;;;;;;;;;;;;;;;9.14;100.00;98276.13;7393229;19;19919;-58
2022/10/14 01:59:16;;;;;;;;;;;;;;;9.15;100.00;98275.19;7394659;19;20407;-53
2022/10/14 02:01:48;;;;;;;;;;;;;;;9.32;100.00;98265.47;7393102;19;19978;-52
2022/10/14 02:04:18;;;;;;;;;;;;;;;9.06;100.00;98265.19;7386215;19;20292;-49
2022/10/14 02:06:50;;;;;;;;;;;;;;;9.09;100.00;98267.63;7392892;19;19922;-52
2022/10/14 02:09:24;;;;;;;;;;;;;;;9.17;100.00;98268.06;7393592;19;19935;-46
2022/10/14 02:12:01;;;;;;;;;;;;;;;9.23;100.00;98268.59;7386125;19;20274;-51
2022/10/14 02:14:36;;;;;;;;;;;;;;;9.19;100.00;98263.59;7392754;19;19911;-50
2022/10/14 02:17:11;;;;;;;;;;;;;;;9.21;100.00;98261.72;7387649;19;19922;-53
2022/10/14 02:19:44;;;;;;;;;;;;;;;9.07;100.00;98257.22;7392074;19;19938;-49
2022/10/14 02:22:18;;;;;;;;;;;;;;;8.81;100.00;98260.41;7391185;19;19909;-49
2022/10/14 02:24:55;;;;;;;;;;;;;;;9.25;100.00;98244.88;7391506;19;19925;-48
2022/10/14 02:27:26;;;;;;;;;;;;;;;9.32;100.00;98251.50;7393360;19;19919;-46
2022/10/14 02:29:59;;;;;;;;;;;;;;;9.06;100.00;98244.19;7386026;19;19928;-52
2022/10/14 02:32:34;;;;;;;;;;;;;;;9.41;100.00;98243.13;7391627;19;19921;-49
2022/10/14 02:35:05;;;;;;;;;;;;;;;9.34;100.00;98244.41;7392811;19;19917;-47
2022/10/14 02:37:35;;;;;;;;;;;;;;;8.85;100.00;98248.00;7387084;19;19914;-48
2022/10/14 02:40:09;;;;;;;;;;;;;;;8.79;100.00;98246.53;7392510;19;19940;-46
2022/10/14 02:42:38;;;;;;;;;;;;;;;8.98;100.00;98249.00;7390426;19;19922;-47
2022/10/14 02:45:09;;;;;;;;;;;;;;;9.13;100.00;98246.41;7390047;19;19914;-48
2022/10/14 02:47:43;;;;;;;;;;;;;;;8.97;100.00;98247.31;7392162;19;19982;-52
2022/10/14 02:50:13;;;;;;;;;;;;;;;9.04;100.00;98253.94;7387486;19;19922;-48
2022/10/14 02:52:42;;;;;;;;;;;;;;;8.49;100.00;98249.94;7388222;19;19919;-47
2022/10/14 02:55:12;;;;;;;;;;;;;;;8.84;100.00;98259.38;7393004;19;19910;-47
2022/10/14 02:57:41;;;;;;;;;;;;;;;8.68;100.00;98248.88;7391603;19;19951;-51
2022/10/14 03:00:11;;;;;;;;;;;;;;;8.93;100.00;98253.66;7391600;19;19918;-47
2022/10/14 03:02:43;;;;;;;;;;;;;;;8.89;100.00;98247.72;7389980;19;19915;-54
2022/10/14 03:05:13;;;;;;;;;;;;;;;8.73;100.00;98243.38;7385815;19;20194;-54
2022/10/14 03:07:43;;;;;;;;;;;;;;;8.50;100.00;98249.00;7392264;19;19929;-53
2022/10/14 03:10:19;;;;;;;;;;;;;;;8.72;100.00;98242.56;7388992;19;19919;-51
2022/10/14 03:12:50;;;;;;;;;;;;;;;8.93;100.00;98240.53;7384694;19;19922;-50
2022/10/14 03:15:42;;;;;;;;;;;;;;;9.10;100.00;98245.69;7389131;19;19922;-49
2022/10/14 03:18:16;;;;;;;;;;;;;;;8.90;100.00;98241.56;7387151;19;19915;-48
2022/10/14 03:20:48;;;;;;;;;;;;;;;9.30;100.00;98242.84;7391841;19;19929;-50
2022/10/14 03:23:26;;;;;;;;;;;;;;;9.05;100.00;98237.25;7382980;19;19986;-55
2022/10/14 03:25:56;;;;;;;;;;;;;;;8.78;100.00;98230.88;7388971;19;19966;-46
2022/10/14 03:28:30;;;;;;;;;;;;;;;9.07;100.00;98241.47;7384663;19;20355;-49
2022/10/14 03:31:15;;;;;;;;;;;;;;;8.79;100.00;98241.28;7388004;19;19918;-48
2022/10/14 03:34:16;;;;;;;;;;;;;;;8.29;100.00;98242.25;7380260;19;19917;-50
2022/10/14 03:36:46;;;;;;;;;;;;;;;8.22;100.00;98246.13;7386637;19;19994;-51
2022/10/14 03:39:16;;;;;;;;;;;;;;;8.13;100.00;98237.78;7385554;19;19982;-49
2022/10/14 03:41:50;;;;;;;;;;;;;;;7.92;100.00;98244.13;7386632;19;19928;-47
2022/10/14 03:44:24;;;;;;;;;;;;;;;8.06;100.00;98243.44;7386714;19;19919;-50
2022/10/14 03:47:18;;;;;;;;;;;;;;;7.98;100.00;98241.19;7382617;19;19920;-50
2022/10/14 03:49:50;;;;;;;;;;;;;;;8.63;100.00;98231.69;7386604;19;19921;-49
2022/10/14 03:52:29;;;;;;;;;;;;;;;8.24;100.00;98239.03;7383427;19;20317;-49
2022/10/14 03:55:08;;;;;;;;;;;;;;;8.39;100.00;98233.84;7388944;19;19922;-48
2022/10/14 03:57:37;;;;;;;;;;;;;;;8.45;100.00;98235.28;7382671;19;19946;-50
2022/10/14 04:00:09;;;;;;;;;;;;;;;8.50;100.00;98228.88;7386689;19;20308;-49
2022/10/14 04:02:44;;;;;;;;;;;;;;;8.18;100.00;98228.84;7387299;19;19914;-49
2022/10/14 04:05:45;;;;;;;;;;;;;;;8.07;100.00;98232.88;7385586;19;19936;-48
2022/10/14 04:08:20;;;;;;;;;;;;;;;8.08;100.00;98231.94;7380462;19;19918;-49
2022/10/14 04:10:57;;;;;;;;;;;;;;;8.44;100.00;98220.50;7385365;19;20285;-49
2022/10/14 04:13:29;;;;;;;;;;;;;;;8.33;100.00;98226.28;7387929;19;19929;-47
2022/10/14 04:15:58;;;;;;;;;;;;;;;8.43;100.00;98224.03;7384939;19;19943;-50
2022/10/14 04:18:34;;;;;;;;;;;;;;;8.42;100.00;98219.72;7387988;19;19935;-48
2022/10/14 04:21:10;;;;;;;;;;;;;;;8.66;100.00;98215.81;7383761;19;19984;-58
2022/10/14 04:23:40;;;;;;;;;;;;;;;8.77;100.00;98219.53;7386122;19;19915;-50
2022/10/14 04:26:19;;;;;;;;;;;;;;;8.47;100.00;98215.06;7387743;19;20418;-49
2022/10/14 04:28:49;;;;;;;;;;;;;;;8.66;100.00;98211.41;7383817;19;19931;-51
2022/10/14 04:31:32;;;;;;;;;;;;;;;8.31;100.00;98208.94;7387268;19;19914;-51
2022/10/14 04:34:04;;;;;;;;;;;;;;;8.31;100.00;98208.94;7380388;19;19915;-48
2022/10/14 04:36:43;;;;;;;;;;;;;;;8.52;100.00;98211.28;7387781;19;19948;-51
2022/10/14 04:39:46;;;;;;;;;;;;;;;8.65;100.00;98201.84;7386351;19;19914;-51
2022/10/14 04:42:16;;;;;;;;;;;;;;;8.78;100.00;98204.66;7386417;19;20299;-53
2022/10/14 04:44:47;;;;;;;;;;;;;;;8.75;100.00;98199.56;7383436;19;19915;-50
2022/10/14 04:47:18;;;;;;;;;;;;;;;8.62;100.00;98203.75;7387568;19;19935;-51
2022/10/14 04:49:52;;;;;;;;;;;;;;;8.74;100.00;98200.50;7387188;19;20589;-48
2022/10/14 04:52:26;;;;;;;;;;;;;;;8.46;100.00;98202.91;7382982;19;19925;-52
2022/10/14 04:55:05;;;;;;;;;;;;;;;8.45;100.00;98198.59;7377393;19;19978;-52
2022/10/14 04:57:42;;;;;;;;;;;;;;;8.42;100.00;98204.84;7381337;19;19915;-49
2022/10/14 05:00:13;;;;;;;;;;;;;;;8.64;100.00;98197.53;7387662;19;19960;-52
2022/10/14 05:02:53;;;;;;;;;;;;;;;8.62;100.00;98194.13;7378059;19;20295;-53
2022/10/14 05:05:29;;;;;;;;;;;;;;;8.71;100.00;98190.16;7384238;19;20240;-47
2022/10/14 05:08:03;;;;;;;;;;;;;;;8.69;100.00;98192.88;7383950;19;20272;-52
2022/10/14 05:10:39;;;;;;;;;;;;;;;8.89;100.00;98186.53;7384938;19;19930;-47
2022/10/14 05:13:13;;;;;;;;;;;;;;;9.19;100.00;98185.69;7384792;19;19952;-53
2022/10/14 05:15:55;;;;;;;;;;;;;;;9.16;100.00;98192.88;7383468;19;19983;-48
2022/10/14 05:21:29;;;;;;;;;;;;;;;9.27;100.00;98190.50;7401950;19;19937;-48
2022/10/14 05:42:55;;;;;;;;;;;;;;;9.58;100.00;98185.22;7386536;19;19927;-49
2022/10/14 05:45:26;;;;;;;;;;;;;;;9.53;100.00;98182.88;7383720;19;19918;-51
2022/10/14 05:47:55;;;;;;;;;;;;;;;9.45;100.00;98192.13;7379709;19;20368;-51
2022/10/14 05:50:25;;;;;;;;;;;;;;;9.72;100.00;98187.91;7385709;19;19938;-48
2022/10/14 05:52:56;;;;;;;;;;;;;;;9.64;100.00;98188.34;7381112;19;19923;-51
2022/10/14 05:55:30;;;;;;;;;;;;;;;9.59;100.00;98185.13;7381646;19;20396;-54
2022/10/14 05:58:07;;;;;;;;;;;;;;;9.70;100.00;98185.34;7384213;19;19927;-50
2022/10/14 06:00:41;;;;;;;;;;;;;;;10.07;100.00;98191.94;7379104;19;19914;-50
2022/10/14 06:03:24;;;;;;;;;;;;;;;9.98;100.00;98187.19;7383711;19;19941;-49
2022/10/14 06:05:54;;;;;;;;;;;;;;;9.54;100.00;98195.06;7379912;19;19990;-51
2022/10/14 06:08:24;;;;;;;;;;;;;;;9.61;100.00;98192.91;7382867;19;20481;-53
2022/10/14 06:10:54;;;;;;;;;;;;;;;10.06;100.00;98190.25;7381100;19;20343;-49
2022/10/14 06:13:26;;;;;;;;;;;;;;;9.80;100.00;98193.53;7378626;19;19928;-53
2022/10/14 06:15:56;;;;;;;;;;;;;;;10.00;100.00;98191.47;7380531;19;20328;-51
2022/10/14 06:18:26;;;;;;;;;;;;;;;9.97;100.00;98190.78;7383686;19;19918;-48
2022/10/14 06:20:57;;;;;;;;;;;;;;;9.97;100.00;98194.25;7376704;19;19919;-53
2022/10/14 06:23:27;;;;;;;;;;;;;;;9.85;100.00;98199.41;7383356;19;19915;-51
2022/10/14 06:25:56;;;;;;;;;;;;;;;9.91;100.00;98199.00;7386438;19;19918;-50
2022/10/14 06:28:29;;;;;;;;;;;;;;;10.12;100.00;98195.97;7386808;19;19922;-49
2022/10/14 06:30:59;;;;;;;;;;;;;;;10.00;100.00;98201.13;7391829;19;19922;-48
2022/10/14 06:33:30;;;;;;;;;;;;;;;10.13;100.00;98194.19;7393520;19;19918;-48
2022/10/14 06:36:00;;;;;;;;;;;;;;;9.92;100.00;98203.34;7385928;19;20343;-49
2022/10/14 06:38:29;;;;;;;;;;;;;;;10.08;100.00;98197.09;7389568;19;19979;-57
2022/10/14 06:40:59;;;;;;;;;;;;;;;9.96;100.00;98199.59;7391168;19;20256;-50
2022/10/14 06:43:36;;;;;;;;;;;;;;;9.79;100.00;98202.38;7386053;19;19927;-52
2022/10/14 06:46:06;;;;;;;;;;;;;;;10.08;100.00;98196.25;7396248;19;19919;-49
2022/10/14 06:48:36;;;;;;;;;;;;;;;10.00;100.00;98196.72;7396051;19;20307;-51
2022/10/14 06:51:08;;;;;;;;;;;;;;;10.13;100.00;98204.69;7393765;19;20412;-52
2022/10/14 06:53:37;;;;;;;;;;;;;;;10.08;100.00;98198.88;7396570;19;19919;-48
2022/10/14 06:56:10;;;;;;;;;;;;;;;10.27;100.00;98202.09;7391479;19;19918;-51
2022/10/14 06:58:43;;;;;;;;;;;;;;;10.34;100.00;98200.78;7393717;19;19918;-48
2022/10/14 07:01:16;;;;;;;;;;;;;;;10.45;100.00;98198.34;7400243;19;19934;-55
2022/10/14 07:03:45;;;;;;;;;;;;;;;10.29;100.00;98203.69;7393928;19;19919;-51
2022/10/14 07:06:14;;;;;;;;;;;;;;;10.58;100.00;98199.31;7386944;19;19970;-47
2022/10/14 07:08:44;;;;;;;;;;;;;;;10.53;100.00;98199.56;7389895;19;19933;-48
2022/10/14 07:11:13;;;;;;;;;;;;;;;10.65;100.00;98203.25;7386753;19;19915;-48
2022/10/14 07:13:45;;;;;;;;;;;;;;;10.88;100.00;98211.41;7394859;19;19922;-50
2022/10/14 07:16:20;;;;;;;;;;;;;;;10.76;100.00;98206.91;7395148;19;20253;-47
2022/10/14 07:18:50;;;;;;;;;;;;;;;10.69;100.00;98202.97;7398586;19;20387;-48
2022/10/14 07:21:24;;;;;;;;;;;;;;;10.42;100.00;98209.06;7394705;19;19966;-49
2022/10/14 07:23:54;;;;;;;;;;;;;;;10.72;100.00;98205.44;7399944;19;19947;-53
2022/10/14 07:26:23;;;;;;;;;;;;;;;10.81;100.00;98206.66;7388744;19;19914;-52
2022/10/14 07:28:55;;;;;;;;;;;;;;;10.80;100.00;98203.16;7391707;19;19918;-49
2022/10/14 07:31:25;;;;;;;;;;;;;;;11.19;100.00;98211.19;7389587;19;19962;-58
2022/10/14 07:33:54;;;;;;;;;;;;;;;11.13;100.00;98213.38;7389684;19;19994;-49
2022/10/14 07:36:23;;;;;;;;;;;;;;;11.14;100.00;98209.78;7391278;19;19922;-50
2022/10/14 07:38:52;;;;;;;;;;;;;;;11.59;100.00;98205.97;7389591;19;19962;-53
2022/10/14 07:41:23;;;;;;;;;;;;;;;11.31;100.00;98209.53;7390769;19;19955;-48
2022/10/14 07:43:56;;;;;;;;;;;;;;;11.40;100.00;98206.31;7391309;19;19922;-52
2022/10/14 07:46:31;;;;;;;;;;;;;;;11.34;100.00;98204.94;7388687;19;20296;-49
2022/10/14 07:49:01;;;;;;;;;;;;;;;11.30;100.00;98199.97;7391481;19;20223;-48
2022/10/14 07:51:31;;;;;;;;;;;;;;;11.45;100.00;98203.41;7390838;19;19914;-48
2022/10/14 07:54:01;;;;;;;;;;;;;;;11.62;100.00;98200.50;7384916;19;19939;-47
2022/10/14 07:56:31;;;;;;;;;;;;;;;11.48;100.00;98198.78;7391113;19;19922;-50
2022/10/14 07:59:03;;;;;;;;;;;;;;;11.44;100.00;98213.09;7391123;19;19918;-50
2022/10/14 08:01:32;;;;;;;;;;;;;;;11.76;100.00;98203.94;7385738;19;20409;-48
2022/10/14 08:04:02;;;;;;;;;;;;;;;11.83;100.00;98204.38;7390388;19;19922;-50
2022/10/14 08:06:31;;;;;;;;;;;;;;;11.65;100.00;98200.31;7390908;19;19933;-48
2022/10/14 08:09:00;;;;;;;;;;;;;;;11.78;100.00;98203.84;7384536;19;19938;-49
2022/10/14 08:11:30;;;;;;;;;;;;;;;11.81;100.00;98203.59;7388823;19;20371;-49
2022/10/14 08:14:00;;;;;;;;;;;;;;;11.64;100.00;98215.25;7389909;19;19922;-51
2022/10/14 08:16:34;;;;;;;;;;;;;;;11.41;100.00;98212.47;7383645;19;19938;-52
2022/10/14 08:19:05;;;;;;;;;;;;;;;11.61;100.00;98204.94;7390323;19;19923;-48
2022/10/14 08:21:34;;;;;;;;;;;;;;;11.78;100.00;98207.28;7389807;19;19947;-48
2022/10/14 08:24:03;;;;;;;;;;;;;;;11.94;100.00;98205.38;7383959;19;19931;-48
2022/10/14 08:26:34;;;;;;;;;;;;;;;12.01;100.00;98209.28;7390323;19;19919;-47
2022/10/14 08:29:08;;;;;;;;;;;;;;;12.03;100.00;98206.53;7388114;19;19922;-48
2022/10/14 08:31:46;;;;;;;;;;;;;;;11.80;100.00;98204.56;7400176;19;19948;-49
2022/10/14 08:34:19;;;;;;;;;;;;;;;12.00;100.00;98204.94;7389332;19;20314;-48
2022/10/14 08:36:49;;;;;;;;;;;;;;;11.69;100.00;98207.06;7386654;19;19974;-48
2022/10/14 08:39:20;;;;;;;;;;;;;;;11.80;100.00;98207.19;7395078;19;19932;-47
2022/10/14 08:42:03;;;;;;;;;;;;;;;11.69;100.00;98204.41;7401353;19;19914;-47
2022/10/14 08:44:38;;;;;;;;;;;;;;;11.75;100.00;98206.66;7394301;19;19926;-48
2022/10/14 08:47:16;;;;;;;;;;;;;;;11.85;100.00;98203.31;7397026;19;19991;-47
2022/10/14 08:49:52;;;;;;;;;;;;;;;11.73;100.00;98209.41;7390569;19;19919;-47
2022/10/14 08:52:25;;;;;;;;;;;;;;;11.92;100.00;98203.75;7395621;19;19922;-47
2022/10/14 08:54:57;;;;;;;;;;;;;;;12.25;100.00;98199.72;7393191;19;19922;-47
2022/10/14 08:57:28;;;;;;;;;;;;;;;12.44;100.00;98200.13;7400784;19;19911;-51
2022/10/14 08:59:58;;;;;;;;;;;;;;;12.10;100.00;98200.75;7396409;19;19927;-47
2022/10/14 09:02:36;;;;;;;;;;;;;;;12.18;100.00;98194.94;7383834;19;19923;-46
2022/10/14 09:05:06;;;;;;;;;;;;;;;12.33;100.00;98191.28;7394431;19;20264;-48
2022/10/14 09:07:38;;;;;;;;;;;;;;;12.35;100.00;98192.00;7390689;19;19938;-54
2022/10/14 09:10:09;;;;;;;;;;;;;;;12.24;100.00;98189.25;7390781;19;19930;-50
2022/10/14 09:12:41;;;;;;;;;;;;;;;12.12;100.00;98185.66;7393040;19;19922;-47
2022/10/14 09:18:08;;;;;;;;;;;;;;;12.00;100.00;98201.50;7389809;19;20307;-49
2022/10/14 09:20:37;;;;;;;;;;;;;;;12.23;100.00;98195.50;7391384;19;19919;-49
2022/10/14 09:29:33;;;;;;;;;;;;;;;12.13;100.00;98203.19;7388774;19;19944;-49
2022/10/14 09:32:04;;;;;;;;;;;;;;;12.23;100.00;98196.31;7384493;19;19928;-49
2022/10/14 09:34:38;;;;;;;;;;;;;;;12.37;100.00;98195.41;7378828;19;19922;-52
2022/10/14 09:37:18;;;;;;;;;;;;;;;12.52;100.00;98194.34;7387761;19;20520;-52
2022/10/14 09:39:47;;;;;;;;;;;;;;;12.01;100.00;98182.91;7381128;19;19922;-59
2022/10/14 09:42:20;;;;;;;;;;;;;;;12.15;100.00;98190.72;7387370;19;19939;-49
2022/10/14 09:45:05;;;;;;;;;;;;;;;12.25;100.00;98190.94;7388678;19;19931;-52
2022/10/14 09:47:37;;;;;;;;;;;;;;;12.40;100.00;98193.38;7388417;19;19931;-47
2022/10/14 09:50:12;;;;;;;;;;;;;;;12.34;100.00;98200.88;7388606;19;19922;-49
2022/10/14 09:52:42;;;;;;;;;;;;;;;12.13;100.00;98197.91;7382498;19;19922;-47
2022/10/14 09:55:20;;;;;;;;;;;;;;;12.08;100.00;98200.00;7384763;19;19922;-49
2022/10/14 09:57:49;;;;;;;;;;;;;;;12.16;100.00;98188.94;7384773;19;19922;-49
2022/10/14 10:00:27;;;;;;;;;;;;;;;12.19;100.00;98191.38;7379177;19;19915;-49
2022/10/14 10:02:57;;;;;;;;;;;;;;;12.01;100.00;98193.44;7394307;19;19923;-49
2022/10/14 10:05:29;;;;;;;;;;;;;;;12.55;100.00;98188.81;7391306;19;20015;-52
2022/10/14 10:08:05;;;;;;;;;;;;;;;12.55;100.00;98191.47;7395274;19;19934;-53
2022/10/14 10:10:34;;;;;;;;;;;;;;;12.67;100.00;98183.53;7394051;19;19923;-52
2022/10/14 10:13:04;;;;;;;;;;;;;;;12.72;100.00;98181.44;7389256;19;19925;-49
2022/10/14 10:15:56;;;;;;;;;;;;;;;12.55;100.00;98184.41;7395500;19;19925;-46
2022/10/14 10:18:27;;;;;;;;;;;;;;;12.58;100.00;98181.56;7390330;19;19923;-47
2022/10/14 10:21:08;;;;;;;;;;;;;;;12.72;100.00;98186.72;7393496;19;19931;-48
2022/10/14 10:23:38;;;;;;;;;;;;;;;12.92;100.00;98178.22;7390702;19;19945;-48
2022/10/14 10:26:19;;;;;;;;;;;;;;;12.87;100.00;98183.00;7393394;19;19922;-47
2022/10/14 10:28:50;;;;;;;;;;;;;;;13.09;100.00;98175.25;7394436;19;19919;-48
2022/10/14 10:31:31;;;;;;;;;;;;;;;13.31;100.00;98172.75;7391012;19;20237;-46
2022/10/14 10:34:06;;;;;;;;;;;;;;;13.16;100.00;98175.66;7392617;19;19923;-47
2022/10/14 10:36:42;;;;;;;;;;;;;;;13.43;100.00;98166.56;7387713;19;19978;-49
2022/10/14 10:39:19;;;;;;;;;;;;;;;13.20;100.00;98172.69;7394509;19;19990;-47
2022/10/14 10:41:57;;;;;;;;;;;;;;;13.13;100.00;98168.78;7389310;19;19943;-57
2022/10/14 10:44:36;;;;;;;;;;;;;;;13.26;100.00;98166.94;7394747;19;19929;-50
2022/10/14 10:47:11;;;;;;;;;;;;;;;13.50;100.00;98159.88;7392427;19;19922;-58
2022/10/14 10:49:49;;;;;;;;;;;;;;;13.51;100.00;98150.97;7394618;19;19943;-48
2022/10/14 10:52:29;;;;;;;;;;;;;;;13.47;100.00;98161.88;7394411;19;19911;-49
2022/10/14 10:55:04;;;;;;;;;;;;;;;13.58;100.00;98156.63;7391006;19;20312;-50
2022/10/14 10:57:40;;;;;;;;;;;;;;;13.39;100.00;98153.66;7391206;19;20231;-50
2022/10/14 11:00:12;;;;;;;;;;;;;;;13.32;100.00;98149.78;7386222;19;19907;-48
2022/10/14 11:02:56;;;;;;;;;;;;;;;13.53;100.00;98142.94;7389242;19;20200;-52
2022/10/14 11:05:37;;;;;;;;;;;;;;;13.48;100.00;98145.09;7391557;19;19919;-49
2022/10/14 11:13:59;;;;;;;;;;;;;;;12.95;100.00;98141.03;7395196;19;19915;-47
2022/10/14 11:16:34;;;;;;;;;;;;;;;12.91;100.00;98133.44;7399506;19;19922;-47
2022/10/14 11:22:49;;;;;;;;;;;;;;;12.86;100.00;98130.28;7386788;19;20506;-49
2022/10/14 11:25:27;;;;;;;;;;;;;;;12.86;100.00;98125.88;7387177;19;19914;-47
2022/10/14 11:28:02;;;;;;;;;;;;;;;13.01;100.00;98119.47;7392954;19;20264;-48
2022/10/14 11:31:03;;;;;;;;;;;;;;;13.31;100.00;98122.53;7397705;19;19928;-47
2022/10/14 11:33:54;;;;;;;;;;;;;;;13.56;100.00;98113.63;7387545;19;19951;-47
2022/10/14 11:36:30;;;;;;;;;;;;;;;13.51;100.00;98103.38;7391107;19;19910;-49
2022/10/14 11:39:10;;;;;;;;;;;;;;;13.63;100.00;98107.75;7389675;19;19919;-48
2022/10/14 11:44:38;;;;;;;;;;;;;;;13.37;100.00;98105.38;7392863;19;19910;-46
2022/10/14 11:47:13;;;;;;;;;;;;;;;13.24;100.00;98102.81;7396384;19;19918;-47
2022/10/14 11:50:05;;;;;;;;;;;;;;;13.41;100.00;98109.50;7390316;19;20487;-46
2022/10/14 11:52:37;;;;;;;;;;;;;;;13.93;100.00;98105.47;7387375;19;19939;-48
2022/10/14 11:55:08;;;;;;;;;;;;;;;13.72;100.00;98106.22;7393432;19;20256;-48
2022/10/14 11:57:44;;;;;;;;;;;;;;;13.57;100.00;98107.38;7389229;19;19918;-55
2022/10/14 12:00:40;;;;;;;;;;;;;;;13.55;100.00;98109.31;7397252;19;19926;-47
2022/10/14 12:07:02;;;;;;;;;;;;;;;13.73;100.00;98102.66;7400610;19;19914;-47
2022/10/14 12:09:37;;;;;;;;;;;;;;;13.78;100.00;98095.19;7398543;19;19923;-47
2022/10/14 12:15:19;;;;;;;;;;;;;;;13.86;100.00;98104.22;7393599;19;19914;-51
2022/10/14 12:17:51;;;;;;;;;;;;;;;14.09;100.00;98100.66;7400701;19;19926;-50
2022/10/14 12:20:27;;;;;;;;;;;;;;;13.72;100.00;98101.78;7394389;19;20307;-47
2022/10/14 12:22:58;;;;;;;;;;;;;;;13.71;100.00;98105.41;7392806;19;19931;-48
2022/10/14 12:25:30;;;;;;;;;;;;;;;13.33;100.00;98103.94;7389840;19;19934;-48
2022/10/14 12:28:07;;;;;;;;;;;;;;;13.32;100.00;98091.66;7395591;19;19922;-47
2022/10/14 12:30:41;;;;;;;;;;;;;;;13.35;100.00;98096.72;7396205;19;19923;-52
2022/10/14 12:33:13;;;;;;;;;;;;;;;13.07;100.00;98097.09;7390328;19;19935;-46
2022/10/14 12:36:00;;;;;;;;;;;;;;;13.08;100.00;98093.47;7397220;19;19910;-53
2022/10/14 12:38:33;;;;;;;;;;;;;;;13.33;100.00;98091.53;7396360;19;19923;-47
2022/10/14 12:44:37;;;;;;;;;;;;;;;14.04;100.00;98084.31;7395627;19;20275;-47
2022/10/14 12:59:33;;;;;;;;;;;;;;;13.93;100.00;98079.00;7398152;19;19927;-49
2022/10/14 13:05:03;;;;;;;;;;;;;;;13.69;100.00;98080.88;7391782;19;19910;-57
2022/10/14 13:07:47;;;;;;;;;;;;;;;13.69;100.00;98078.22;7385643;19;20217;-49
2022/10/14 13:22:54;;;;;;;;;;;;;;;13.91;100.00;98072.97;7394396;19;19922;-47
2022/10/14 13:25:47;;;;;;;;;;;;;;;14.05;100.00;98077.19;7395385;19;19943;-50
2022/10/14 13:28:23;;;;;;;;;;;;;;;14.01;100.00;98075.75;7391852;19;19979;-47
2022/10/14 13:31:30;;;;;;;;;;;;;;;13.57;100.00;98070.38;7394436;19;20331;-48
2022/10/14 13:34:06;;;;;;;;;;;;;;;13.78;100.00;98077.53;7396582;19;19923;-47
2022/10/14 13:43:09;;;;;;;;;;;;;;;13.65;100.00;98063.56;7401403;19;19926;-47
2022/10/14 13:52:15;;;;;;;;;;;;;;;13.49;100.00;98059.53;7405822;19;19990;-48
2022/10/14 13:55:08;;;;;;;;;;;;;;;13.72;100.00;98069.22;7398491;19;19925;-48
2022/10/14 13:57:37;;;;;;;;;;;;;;;13.82;100.00;98055.19;7403833;19;19914;-47
2022/10/14 14:03:25;;;;;;;;;;;;;;;13.75;100.00;98058.41;7404481;19;19920;-46
2022/10/14 14:17:48;;;;;;;;;;;;;;;13.73;100.00;98050.59;7404479;19;19930;-50
2022/10/14 14:23:24;;;;;;;;;;;;;;;13.43;100.00;98052.91;7408997;19;20215;-47
2022/10/14 14:28:57;;;;;;;;;;;;;;;13.29;100.00;98045.16;7403663;19;20222;-49
2022/10/14 14:34:31;;;;;;;;;;;;;;;13.39;100.00;98051.47;7402188;19;19983;-48
2022/10/14 14:43:13;;;;;;;;;;;;;;;13.47;100.00;98045.59;7405858;19;19926;-48
2022/10/14 14:48:54;;;;;;;;;;;;;;;13.34;100.00;98053.63;7399611;19;19915;-49
2022/10/14 15:04:17;;;;;;;;;;;;;;;12.40;100.00;98056.19;7387114;19;19914;-48
2022/10/14 15:06:51;;;;;;;;;;;;;;;12.23;100.00;98035.41;7388677;19;19911;-48
2022/10/14 15:09:24;;;;;;;;;;;;;;;12.23;100.00;98043.31;7387530;19;20165;-46
2022/10/14 15:11:54;;;;;;;;;;;;;;;12.29;100.00;98048.19;7387933;19;19917;-47
2022/10/14 15:14:31;;;;;;;;;;;;;;;12.03;100.00;98049.16;7385494;19;19922;-56
2022/10/14 15:17:04;;;;;;;;;;;;;;;11.97;100.00;98046.94;7391998;19;19983;-47
2022/10/14 15:19:38;;;;;;;;;;;;;;;11.83;100.00;98041.78;7393229;19;19983;-52
2022/10/14 15:25:55;;;;;;;;;;;;;;;11.36;100.00;98044.16;7402456;19;19943;-47
2022/10/14 15:35:15;;;;;;;;;;;;;;;11.32;100.00;98048.78;7400806;19;20016;-47
2022/10/14 15:49:16;;;;;;;;;;;;;;;11.27;100.00;98057.94;7384852;19;19911;-47
2022/10/14 15:51:45;;;;;;;;;;;;;;;10.84;100.00;98054.63;7385460;19;19931;-49
2022/10/14 15:54:16;;;;;;;;;;;;;;;10.85;100.00;98063.38;7382599;19;19922;-54
2022/10/14 15:56:47;;;;;;;;;;;;;;;10.82;100.00;98056.53;7385703;19;20239;-52
2022/10/14 15:59:18;;;;;;;;;;;;;;;10.97;100.00;98063.44;7383246;19;19944;-57